Time;durP1;ratioP1;P1;durP2;ratioP2;P2;SDS_P1;SDS_P2;PMS_P1;PMS_P2;Temp;Humidity;BMP_temperature;BMP_pressure;BME280_temperature;BME280_humidity;BME280_pressure;Samples;Min_cycle;Max_cycle;Signal;HPM_P1;HPM_P2
2022/01/28 00:02:16;;;;;;;;;50.00;41.50;;;;;;;;4990263;28;45450;-78
2022/01/28 00:04:41;;;;;;;;;41.50;38.00;;;;;;;;4990098;28;46186;-79
2022/01/28 00:07:06;;;;;;;;;44.00;39.33;;;;;;;;4990090;28;45396;-82
2022/01/28 00:09:32;;;;;;;;;48.33;40.67;;;;;;;;4989738;28;45333;-81
2022/01/28 00:11:57;;;;;;;;;52.33;38.67;;;;;;;;4990522;28;45329;-79
2022/01/28 00:38:48;;;;;;;;;44.75;39.00;;;;;;;;4989125;28;45833;-81
2022/01/28 00:41:14;;;;;;;;;40.50;36.75;;;;;;;;4990048;28;45952;-78
2022/01/28 00:43:40;;;;;;;;;40.50;36.75;;;;;;;;4989351;28;45604;-80
2022/01/28 00:46:05;;;;;;;;;52.50;40.75;;;;;;;;4988582;28;45337;-79
2022/01/28 00:48:30;;;;;;;;;46.00;38.00;;;;;;;;4989219;28;45467;-78
2022/01/28 00:50:56;;;;;;;;;48.00;38.00;;;;;;;;4988858;28;45453;-81
2022/01/28 00:53:21;;;;;;;;;49.33;40.33;;;;;;;;4989408;28;46367;-78
2022/01/28 00:55:46;;;;;;;;;40.67;37.00;;;;;;;;4988064;28;45642;-77
2022/01/28 00:58:11;;;;;;;;;39.00;35.67;;;;;;;;4988996;28;45475;-79
2022/01/28 01:00:37;;;;;;;;;49.33;41.00;;;;;;;;4989312;28;45563;-81
2022/01/28 01:03:02;;;;;;;;;41.67;35.67;;;;;;;;4989259;28;45494;-81
2022/01/28 01:05:30;;;;;;;;;46.00;39.25;;;;;;;;4988917;28;46448;-80
2022/01/28 01:07:56;;;;;;;;;43.25;38.00;;;;;;;;4989434;28;45563;-80
2022/01/28 01:10:23;;;;;;;;;39.75;34.25;;;;;;;;4989768;28;45513;-81
2022/01/28 01:12:48;;;;;;;;;42.00;37.50;;;;;;;;4988706;28;45514;-78
2022/01/28 01:15:17;;;;;;;;;48.33;38.00;;;;;;;;4989275;28;45688;-80
2022/01/28 01:22:53;;;;;;;;;49.25;39.75;;;;;;;;4989262;28;45586;-81
2022/01/28 01:25:25;;;;;;;;;39.00;35.00;;;;;;;;4992047;28;45502;-79
2022/01/28 01:27:54;;;;;;;;;41.25;35.00;;;;;;;;4992844;28;45464;-80
2022/01/28 01:30:20;;;;;;;;;41.75;35.75;;;;;;;;4994783;28;45424;-81
2022/01/28 01:32:45;;;;;;;;;40.25;35.50;;;;;;;;4987749;28;45552;-80
2022/01/28 01:35:11;;;;;;;;;47.33;39.00;;;;;;;;4992380;28;46404;-78
2022/01/28 01:37:36;;;;;;;;;42.25;37.00;;;;;;;;4991743;28;45527;-78
2022/01/28 01:40:02;;;;;;;;;49.00;39.67;;;;;;;;4992852;28;45486;-79
2022/01/28 01:42:53;;;;;;;;;46.75;39.00;;;;;;;;4992135;28;45375;-77
2022/01/28 01:45:47;;;;;;;;;49.75;39.50;;;;;;;;4992400;28;46470;-79
2022/01/28 01:53:30;;;;;;;;;44.50;36.75;;;;;;;;4992007;28;45419;-78
2022/01/28 01:55:56;;;;;;;;;47.75;38.50;;;;;;;;4991591;28;45508;-78
2022/01/28 01:58:26;;;;;;;;;50.50;41.00;;;;;;;;4992654;28;45566;-78
2022/01/28 02:00:51;;;;;;;;;55.00;44.75;;;;;;;;4991278;28;45654;-79
2022/01/28 02:03:17;;;;;;;;;53.67;42.67;;;;;;;;4992324;28;45542;-80
2022/01/28 02:05:42;;;;;;;;;45.67;37.67;;;;;;;;4992309;28;45508;-81
2022/01/28 02:08:07;;;;;;;;;47.33;40.33;;;;;;;;4991762;28;44949;-81
2022/01/28 02:10:33;;;;;;;;;44.67;39.33;;;;;;;;4974616;28;45509;-78
2022/01/28 02:12:58;;;;;;;;;44.75;38.25;;;;;;;;4975146;28;45432;-78
2022/01/28 02:15:23;;;;;;;;;48.50;38.25;;;;;;;;4993085;28;45573;-81
2022/01/28 02:17:49;;;;;;;;;44.00;39.33;;;;;;;;4991813;28;45341;-80
2022/01/28 02:20:19;;;;;;;;;43.00;37.00;;;;;;;;4991716;28;45643;-78
2022/01/28 02:22:45;;;;;;;;;37.50;34.00;;;;;;;;4990738;28;45364;-78
2022/01/28 02:25:20;;;;;;;;;39.50;34.75;;;;;;;;4991777;28;46240;-77
2022/01/28 02:27:45;;;;;;;;;37.50;31.75;;;;;;;;4995856;28;45762;-81
2022/01/28 02:30:11;;;;;;;;;41.00;35.67;;;;;;;;5010287;28;45176;-77
2022/01/28 02:32:38;;;;;;;;;38.25;32.50;;;;;;;;5014333;28;44934;-78
2022/01/28 02:35:03;;;;;;;;;37.25;33.00;;;;;;;;5009228;28;46705;-79
2022/01/28 02:37:28;;;;;;;;;38.25;35.50;;;;;;;;5008100;28;44923;-78
2022/01/28 02:39:54;;;;;;;;;35.00;31.67;;;;;;;;4990703;28;45680;-78
2022/01/28 02:42:28;;;;;;;;;34.33;32.00;;;;;;;;4993193;28;45579;-78
2022/01/28 02:44:55;;;;;;;;;37.50;32.25;;;;;;;;4991276;28;46522;-81
2022/01/28 02:47:37;;;;;;;;;38.75;35.50;;;;;;;;4991247;28;45364;-77
2022/01/28 02:50:03;;;;;;;;;38.25;31.75;;;;;;;;4992321;28;45336;-81
2022/01/28 02:52:35;;;;;;;;;22.00;20.25;;;;;;;;4990804;28;45579;-78
2022/01/28 02:55:02;;;;;;;;;34.50;30.50;;;;;;;;4991305;28;45482;-79
2022/01/28 02:57:28;;;;;;;;;32.00;29.50;;;;;;;;4991149;28;45395;-79
2022/01/28 02:59:53;;;;;;;;;30.33;28.67;;;;;;;;4990842;28;45409;-79
2022/01/28 03:02:18;;;;;;;;;40.00;35.00;;;;;;;;4991567;28;45359;-81
2022/01/28 03:07:09;;;;;;;;;44.67;35.00;;;;;;;;4990447;28;45546;-82
2022/01/28 03:10:25;;;;;;;;;34.67;30.33;;;;;;;;4989584;28;45475;-78
2022/01/28 03:12:32;;;;;;;;;33.00;29.25;;;;;;;;4984033;28;45908;-78
2022/01/28 03:15:03;;;;;;;;;34.75;31.00;;;;;;;;4985005;28;45561;-78
2022/01/28 03:19:55;;;;;;;;;34.67;33.00;;;;;;;;4986567;28;45609;-77
2022/01/28 03:22:22;;;;;;;;;30.00;28.50;;;;;;;;4990707;28;45475;-80
2022/01/28 03:24:51;;;;;;;;;39.00;34.75;;;;;;;;4990480;28;45764;-77
2022/01/28 03:27:32;;;;;;;;;41.00;35.25;;;;;;;;4990853;28;45707;-78
2022/01/28 03:29:58;;;;;;;;;34.75;30.25;;;;;;;;4990162;28;45624;-77
2022/01/28 03:32:23;;;;;;;;;33.33;32.00;;;;;;;;4988720;28;45657;-77
2022/01/28 03:34:48;;;;;;;;;38.67;35.00;;;;;;;;4990778;28;46483;-79
2022/01/28 03:37:14;;;;;;;;;28.00;27.67;;;;;;;;4972807;28;45470;-77
2022/01/28 03:39:39;;;;;;;;;33.50;31.75;;;;;;;;4990817;28;45651;-79
2022/01/28 03:42:05;;;;;;;;;30.33;27.67;;;;;;;;4973024;28;45450;-78
2022/01/28 03:44:30;;;;;;;;;30.75;29.75;;;;;;;;4990025;28;46238;-80
2022/01/28 03:46:55;;;;;;;;;34.33;31.67;;;;;;;;4971789;28;45453;-77
2022/01/28 03:49:21;;;;;;;;;32.67;29.67;;;;;;;;4990855;28;45838;-79
2022/01/28 03:51:46;;;;;;;;;40.00;32.33;;;;;;;;4989435;28;45361;-76
2022/01/28 03:54:11;;;;;;;;;33.67;31.33;;;;;;;;4973628;28;47979;-78
2022/01/28 03:56:36;;;;;;;;;36.67;33.00;;;;;;;;4973239;28;45940;-80
2022/01/28 03:59:02;;;;;;;;;34.00;30.00;;;;;;;;4989714;28;45459;-77
2022/01/28 04:01:33;;;;;;;;;35.25;33.25;;;;;;;;4973113;28;45800;-77
2022/01/28 04:12:26;;;;;;;;;35.75;31.00;;;;;;;;4990434;28;45490;-78
2022/01/28 04:17:29;;;;;;;;;40.75;33.25;;;;;;;;4989677;28;45621;-78
2022/01/28 04:19:54;;;;;;;;;41.33;38.00;;;;;;;;4989796;28;45455;-79
2022/01/28 04:22:19;;;;;;;;;36.33;35.67;;;;;;;;4989901;28;45640;-78
2022/01/28 04:24:45;;;;;;;;;42.25;36.00;;;;;;;;4989612;28;45298;-77
2022/01/28 04:27:10;;;;;;;;;39.25;33.75;;;;;;;;4994212;28;45641;-77
2022/01/28 04:29:36;;;;;;;;;43.50;37.50;;;;;;;;4989530;28;45846;-78
2022/01/28 04:32:01;;;;;;;;;36.67;32.33;;;;;;;;4990271;28;45396;-78
2022/01/28 04:34:26;;;;;;;;;34.00;30.50;;;;;;;;4989664;28;45487;-79
2022/01/28 04:37:10;;;;;;;;;42.25;36.00;;;;;;;;4989649;28;45655;-78
2022/01/28 04:42:30;;;;;;;;;37.75;35.75;;;;;;;;5008359;28;45542;-78
2022/01/28 04:51:12;;;;;;;;;42.00;34.75;;;;;;;;4996415;28;45554;-80
2022/01/28 04:55:51;;;;;;;;;44.00;37.67;;;;;;;;4992881;28;45955;-78
2022/01/28 04:58:29;;;;;;;;;41.00;34.25;;;;;;;;4970381;28;45865;-79
2022/01/28 05:24:54;;;;;;;;;47.50;38.75;;;;;;;;4989243;28;45708;-78
2022/01/28 05:27:12;;;;;;;;;42.75;37.50;;;;;;;;4989270;28;46432;-79
2022/01/28 05:29:41;;;;;;;;;43.00;36.25;;;;;;;;4970446;28;45787;-78
2022/01/28 05:32:07;;;;;;;;;42.50;38.75;;;;;;;;5005415;28;45691;-79
2022/01/28 05:34:32;;;;;;;;;44.75;39.00;;;;;;;;5009002;28;45459;-78
2022/01/28 05:37:00;;;;;;;;;43.67;39.00;;;;;;;;5007875;28;45555;-80
2022/01/28 05:39:25;;;;;;;;;18.50;16.00;;;;;;;;5008944;28;45849;-78
2022/01/28 05:41:51;;;;;;;;;47.33;39.00;;;;;;;;4993140;28;45459;-81
2022/01/28 05:44:18;;;;;;;;;48.00;42.25;;;;;;;;4988945;28;45305;-78
2022/01/28 05:46:44;;;;;;;;;49.75;39.75;;;;;;;;4988558;28;46342;-78
2022/01/28 05:49:09;;;;;;;;;45.25;39.25;;;;;;;;4989360;28;45898;-77
2022/01/28 05:51:35;;;;;;;;;42.67;39.00;;;;;;;;4970098;28;45861;-78
2022/01/28 05:54:00;;;;;;;;;40.67;35.33;;;;;;;;4989102;28;45396;-78
2022/01/28 05:56:26;;;;;;;;;49.67;41.00;;;;;;;;4988604;28;45553;-79
2022/01/28 05:58:51;;;;;;;;;51.50;43.75;;;;;;;;4988259;28;45559;-78
2022/01/28 06:01:16;;;;;;;;;57.75;46.25;;;;;;;;4989438;28;45566;-80
2022/01/28 06:03:44;;;;;;;;;59.67;47.00;;;;;;;;4988716;28;45389;-79
2022/01/28 06:06:13;;;;;;;;;61.00;50.75;;;;;;;;4991630;28;46227;-77
2022/01/28 06:08:38;;;;;;;;;61.25;49.25;;;;;;;;5006080;28;45406;-77
2022/01/28 06:11:03;;;;;;;;;65.33;50.00;;;;;;;;5002241;28;45348;-78
2022/01/28 06:13:28;;;;;;;;;61.67;50.33;;;;;;;;4983094;28;45233;-77
2022/01/28 06:15:56;;;;;;;;;67.00;51.00;;;;;;;;4997566;28;45690;-78
2022/01/28 06:18:21;;;;;;;;;65.00;50.50;;;;;;;;4993893;28;46026;-77
2022/01/28 06:20:46;;;;;;;;;68.67;51.33;;;;;;;;5001993;28;45220;-77
2022/01/28 06:23:12;;;;;;;;;65.00;50.67;;;;;;;;5010367;28;45001;-76
2022/01/28 06:25:39;;;;;;;;;64.00;50.50;;;;;;;;5009959;28;45862;-77
2022/01/28 06:28:04;;;;;;;;;65.00;52.00;;;;;;;;5009533;28;45520;-76
2022/01/28 06:30:29;;;;;;;;;65.50;52.25;;;;;;;;5012987;28;45309;-79
2022/01/28 06:32:55;;;;;;;;;64.33;53.00;;;;;;;;5010818;28;45225;-77
2022/01/28 06:35:20;;;;;;;;;65.00;50.33;;;;;;;;5009551;28;45910;-77
2022/01/28 06:37:45;;;;;;;;;68.33;53.00;;;;;;;;4991792;28;45276;-76
2022/01/28 06:40:12;;;;;;;;;69.00;54.00;;;;;;;;5010402;28;45217;-77
2022/01/28 06:42:38;;;;;;;;;65.00;52.00;;;;;;;;4991758;28;45404;-76
2022/01/28 06:45:04;;;;;;;;;75.00;57.50;;;;;;;;5005722;28;45552;-76
2022/01/28 06:47:29;;;;;;;;;67.50;54.00;;;;;;;;4994790;28;45752;-76
2022/01/28 06:49:54;;;;;;;;;69.75;54.25;;;;;;;;5006563;28;45448;-77
2022/01/28 06:52:20;;;;;;;;;68.33;53.67;;;;;;;;4994030;28;45495;-77
2022/01/28 06:54:45;;;;;;;;;75.00;55.67;;;;;;;;4994435;28;45896;-77
2022/01/28 06:57:10;;;;;;;;;68.67;54.00;;;;;;;;4998118;28;45482;-75
2022/01/28 06:59:35;;;;;;;;;69.00;54.00;;;;;;;;5004825;28;45446;-77
2022/01/28 07:02:00;;;;;;;;;65.67;53.00;;;;;;;;5006614;28;45466;-77
2022/01/28 07:04:26;;;;;;;;;65.33;50.33;;;;;;;;5009304;28;45336;-76
2022/01/28 07:06:51;;;;;;;;;66.00;50.00;;;;;;;;5009133;28;45156;-77
2022/01/28 07:09:17;;;;;;;;;70.00;53.33;;;;;;;;5001870;28;45483;-77
2022/01/28 07:11:43;;;;;;;;;63.50;52.25;;;;;;;;5007580;28;45073;-77
2022/01/28 07:14:08;;;;;;;;;64.00;50.75;;;;;;;;5008953;28;45981;-76
2022/01/28 07:16:35;;;;;;;;;63.50;50.50;;;;;;;;5004097;28;45148;-76
2022/01/28 07:19:00;;;;;;;;;63.50;49.75;;;;;;;;5006782;28;45603;-76
2022/01/28 07:21:25;;;;;;;;;64.33;51.33;;;;;;;;5008135;28;45061;-77
2022/01/28 07:23:51;;;;;;;;;65.33;50.00;;;;;;;;5009219;28;45765;-77
2022/01/28 07:26:16;;;;;;;;;58.33;46.67;;;;;;;;5007445;28;45136;-77
2022/01/28 07:28:42;;;;;;;;;63.33;49.00;;;;;;;;4999780;28;45509;-77
2022/01/28 07:31:09;;;;;;;;;59.75;48.00;;;;;;;;5009458;28;45505;-77
2022/01/28 07:33:34;;;;;;;;;59.75;45.75;;;;;;;;5013450;28;45414;-76
2022/01/28 07:36:00;;;;;;;;;61.00;45.00;;;;;;;;4999136;28;45821;-79
2022/01/28 07:38:25;;;;;;;;;59.75;45.75;;;;;;;;5001457;28;45467;-79
2022/01/28 07:40:51;;;;;;;;;55.00;42.33;;;;;;;;4996657;28;45753;-78
2022/01/28 07:43:16;;;;;;;;;59.67;43.33;;;;;;;;4999805;28;46094;-78
2022/01/28 07:45:41;;;;;;;;;55.33;46.33;;;;;;;;5006874;28;45480;-76
2022/01/28 07:48:06;;;;;;;;;56.33;45.67;;;;;;;;5009004;28;45135;-79
2022/01/28 07:50:32;;;;;;;;;61.67;46.67;;;;;;;;5004681;28;45124;-76
2022/01/28 07:52:57;;;;;;;;;57.00;47.00;;;;;;;;4999485;28;45534;-78
2022/01/28 07:55:22;;;;;;;;;58.33;47.67;;;;;;;;4995005;28;46781;-76
2022/01/28 07:57:47;;;;;;;;;58.33;45.67;;;;;;;;4999302;28;45850;-78
2022/01/28 08:00:13;;;;;;;;;54.67;43.67;;;;;;;;5002434;28;45464;-77
2022/01/28 08:02:40;;;;;;;;;57.75;46.75;;;;;;;;4995012;28;45688;-76
2022/01/28 08:05:05;;;;;;;;;59.00;48.00;;;;;;;;5003344;28;45986;-76
2022/01/28 08:07:31;;;;;;;;;57.67;48.00;;;;;;;;4998158;28;45470;-76
2022/01/28 08:09:56;;;;;;;;;57.67;46.33;;;;;;;;4992514;28;45890;-77
2022/01/28 08:12:21;;;;;;;;;56.67;46.00;;;;;;;;4998521;28;45504;-76
2022/01/28 08:14:47;;;;;;;;;57.00;43.50;;;;;;;;5001149;28;45295;-80
2022/01/28 08:17:12;;;;;;;;;58.00;46.00;;;;;;;;4996119;28;45458;-76
2022/01/28 08:19:38;;;;;;;;;59.00;46.00;;;;;;;;4996056;28;45843;-76
2022/01/28 08:22:03;;;;;;;;;57.00;46.50;;;;;;;;4995024;28;45865;-76
2022/01/28 08:24:28;;;;;;;;;57.25;46.75;;;;;;;;4994402;28;45358;-76
2022/01/28 08:26:54;;;;;;;;;59.00;46.00;;;;;;;;5006856;28;45172;-79
2022/01/28 08:29:19;;;;;;;;;56.33;46.67;;;;;;;;5007353;28;45359;-76
2022/01/28 08:31:44;;;;;;;;;64.67;52.00;;;;;;;;5015574;28;45942;-79
2022/01/28 08:34:09;;;;;;;;;57.00;47.00;;;;;;;;5000444;28;45186;-76
2022/01/28 08:36:35;;;;;;;;;59.00;48.67;;;;;;;;4991266;28;45764;-79
2022/01/28 08:39:00;;;;;;;;;67.00;51.00;;;;;;;;4997140;28;45539;-79
2022/01/28 08:41:26;;;;;;;;;65.75;52.50;;;;;;;;4991470;28;45753;-76
2022/01/28 08:43:51;;;;;;;;;62.00;47.75;;;;;;;;4999030;28;45598;-76
2022/01/28 08:46:17;;;;;;;;;56.50;47.75;;;;;;;;4996534;28;45505;-77
2022/01/28 08:48:42;;;;;;;;;59.75;49.25;;;;;;;;4997458;28;45664;-76
2022/01/28 08:51:07;;;;;;;;;64.00;48.33;;;;;;;;4993519;28;46330;-79
2022/01/28 08:53:33;;;;;;;;;59.67;47.67;;;;;;;;4994777;28;45453;-79
2022/01/28 08:55:58;;;;;;;;;63.00;50.50;;;;;;;;4992590;28;45833;-77
2022/01/28 08:58:23;;;;;;;;;55.00;44.00;;;;;;;;4992301;28;45614;-78
2022/01/28 09:00:50;;;;;;;;;58.00;47.00;;;;;;;;4989722;28;45474;-80
2022/01/28 09:03:16;;;;;;;;;65.25;52.50;;;;;;;;4991875;28;45771;-78
2022/01/28 09:05:42;;;;;;;;;63.00;51.00;;;;;;;;4991766;28;45877;-79
2022/01/28 09:08:09;;;;;;;;;61.25;50.00;;;;;;;;4990114;28;45540;-79
2022/01/28 09:10:42;;;;;;;;;55.75;45.00;;;;;;;;4981874;28;47046;-80
2022/01/28 09:15:33;;;;;;;;;58.33;45.00;;;;;;;;5007965;28;45150;-78
2022/01/28 09:17:59;;;;;;;;;58.75;47.00;;;;;;;;4982613;28;45922;-76
2022/01/28 09:20:24;;;;;;;;;55.50;41.50;;;;;;;;4989608;28;45565;-78
2022/01/28 09:22:50;;;;;;;;;53.75;44.25;;;;;;;;4984420;28;45409;-80
2022/01/28 09:25:15;;;;;;;;;54.75;45.25;;;;;;;;5006326;28;45280;-79
2022/01/28 09:27:40;;;;;;;;;50.00;39.75;;;;;;;;5006360;28;44994;-79
2022/01/28 09:30:06;;;;;;;;;41.75;35.50;;;;;;;;5007688;28;45604;-78
2022/01/28 09:32:32;;;;;;;;;34.50;32.50;;;;;;;;5011958;28;45097;-78
2022/01/28 09:34:57;;;;;;;;;28.67;27.33;;;;;;;;5007402;28;44915;-80
2022/01/28 09:37:22;;;;;;;;;33.00;29.75;;;;;;;;5007123;28;45065;-79
2022/01/28 09:39:48;;;;;;;;;33.33;30.33;;;;;;;;5006407;28;45322;-78
2022/01/28 09:42:16;;;;;;;;;28.75;27.25;;;;;;;;5005878;28;45439;-81
2022/01/28 09:44:42;;;;;;;;;32.50;30.50;;;;;;;;5007024;28;45230;-80
2022/01/28 09:47:08;;;;;;;;;34.00;29.00;;;;;;;;5003125;28;45754;-81
2022/01/28 09:49:33;;;;;;;;;34.75;30.00;;;;;;;;4988174;28;45865;-77
2022/01/28 09:51:58;;;;;;;;;32.75;29.00;;;;;;;;4971620;28;45673;-76
2022/01/28 09:54:24;;;;;;;;;32.00;28.33;;;;;;;;5001647;28;45872;-76
2022/01/28 09:56:50;;;;;;;;;29.75;26.00;;;;;;;;5006082;28;45505;-76
2022/01/28 09:59:15;;;;;;;;;31.50;27.25;;;;;;;;5008805;28;46188;-76
2022/01/28 10:01:50;;;;;;;;;33.25;31.75;;;;;;;;5003676;28;45539;-77
2022/01/28 10:04:17;;;;;;;;;33.50;27.75;;;;;;;;4997265;28;45491;-76
2022/01/28 10:06:44;;;;;;;;;35.25;28.50;;;;;;;;4992766;28;45621;-76
2022/01/28 10:09:10;;;;;;;;;26.75;22.00;;;;;;;;4996319;28;46156;-78
2022/01/28 10:11:40;;;;;;;;;28.50;27.50;;;;;;;;4998801;28;46053;-78
2022/01/28 10:14:27;;;;;;;;;28.75;22.50;;;;;;;;4997363;28;45938;-76
2022/01/28 10:16:57;;;;;;;;;27.75;26.75;;;;;;;;4976132;28;45870;-81
2022/01/28 10:19:23;;;;;;;;;24.75;21.50;;;;;;;;4985098;28;46085;-77
2022/01/28 10:21:48;;;;;;;;;25.50;22.50;;;;;;;;4992961;28;45922;-77
2022/01/28 10:24:15;;;;;;;;;19.67;19.33;;;;;;;;4989343;28;45799;-76
2022/01/28 10:26:40;;;;;;;;;28.25;25.00;;;;;;;;4994552;28;45587;-76
2022/01/28 10:29:11;;;;;;;;;27.00;23.00;;;;;;;;4996033;28;45504;-80
2022/01/28 10:31:38;;;;;;;;;32.50;28.75;;;;;;;;5003214;28;45586;-76
2022/01/28 10:34:08;;;;;;;;;29.50;23.25;;;;;;;;4994575;28;45673;-75
2022/01/28 10:36:34;;;;;;;;;26.50;24.75;;;;;;;;4990359;28;45656;-77
2022/01/28 10:38:59;;;;;;;;;29.33;25.67;;;;;;;;4990666;28;45463;-77
2022/01/28 10:41:25;;;;;;;;;36.00;28.00;;;;;;;;4992047;28;45536;-77
2022/01/28 10:43:53;;;;;;;;;33.25;25.75;;;;;;;;5000722;28;45657;-76
2022/01/28 10:46:22;;;;;;;;;28.50;25.75;;;;;;;;5006546;28;45334;-77
2022/01/28 10:48:55;;;;;;;;;27.50;25.25;;;;;;;;4992963;28;46136;-76
2022/01/28 10:51:21;;;;;;;;;29.25;23.50;;;;;;;;5003325;28;45539;-76
2022/01/28 10:54:07;;;;;;;;;29.75;28.25;;;;;;;;5004682;28;45200;-78
2022/01/28 10:56:44;;;;;;;;;31.50;28.00;;;;;;;;4992855;28;45245;-77
2022/01/28 10:59:11;;;;;;;;;28.25;23.75;;;;;;;;5007975;28;45634;-81
2022/01/28 11:01:36;;;;;;;;;31.00;27.75;;;;;;;;5007645;28;45753;-81
2022/01/28 11:04:01;;;;;;;;;31.33;29.33;;;;;;;;5009821;28;45189;-80
2022/01/28 11:06:27;;;;;;;;;30.33;26.67;;;;;;;;5009907;28;45180;-78
2022/01/28 11:08:52;;;;;;;;;25.25;23.75;;;;;;;;5006649;28;46144;-83
2022/01/28 11:11:17;;;;;;;;;24.25;21.50;;;;;;;;5010213;28;45132;-80
2022/01/28 11:13:43;;;;;;;;;25.00;22.00;;;;;;;;5003558;28;45729;-78
2022/01/28 11:16:08;;;;;;;;;29.75;26.25;;;;;;;;5010233;28;45472;-83
2022/01/28 11:18:37;;;;;;;;;29.50;25.50;;;;;;;;5019141;28;45363;-79
2022/01/28 11:21:10;;;;;;;;;31.50;29.25;;;;;;;;5027337;28;45638;-77
2022/01/28 11:23:36;;;;;;;;;25.50;22.75;;;;;;;;5014947;28;45388;-77
2022/01/28 11:26:10;;;;;;;;;28.33;25.67;;;;;;;;4987944;28;45494;-79
2022/01/28 11:28:42;;;;;;;;;27.00;23.25;;;;;;;;5004043;28;45423;-77
2022/01/28 11:31:08;;;;;;;;;24.00;22.00;;;;;;;;5010277;28;45541;-77
2022/01/28 11:33:43;;;;;;;;;29.50;26.50;;;;;;;;5023029;28;45030;-80
2022/01/28 11:36:08;;;;;;;;;30.00;28.00;;;;;;;;5018174;28;45504;-78
2022/01/28 11:38:34;;;;;;;;;29.33;26.00;;;;;;;;5002193;28;45815;-79
2022/01/28 11:41:13;;;;;;;;;25.50;24.00;;;;;;;;4991170;28;45452;-78
2022/01/28 11:43:46;;;;;;;;;27.75;24.25;;;;;;;;4992228;28;45507;-78
2022/01/28 11:46:28;;;;;;;;;27.25;24.75;;;;;;;;4972636;28;45801;-79
2022/01/28 11:49:13;;;;;;;;;29.00;22.50;;;;;;;;4990309;28;45705;-77
2022/01/28 11:51:43;;;;;;;;;26.50;24.75;;;;;;;;4956381;28;45859;-78
2022/01/28 11:54:10;;;;;;;;;29.25;24.00;;;;;;;;4970982;28;45447;-78
2022/01/28 11:56:39;;;;;;;;;22.25;21.25;;;;;;;;4970936;28;45424;-81
2022/01/28 11:59:07;;;;;;;;;30.00;23.00;;;;;;;;4990737;28;46405;-78
2022/01/28 12:01:36;;;;;;;;;24.25;20.25;;;;;;;;4989643;28;45369;-78
2022/01/28 12:04:21;;;;;;;;;26.75;24.75;;;;;;;;4990238;28;45380;-78
2022/01/28 12:06:49;;;;;;;;;31.25;27.00;;;;;;;;4974518;28;46101;-77
2022/01/28 12:09:16;;;;;;;;;30.75;27.25;;;;;;;;4990051;28;45423;-77
2022/01/28 12:11:45;;;;;;;;;24.50;20.50;;;;;;;;4972171;28;45898;-77
2022/01/28 12:14:13;;;;;;;;;32.25;29.50;;;;;;;;4990766;28;45509;-77
2022/01/28 12:16:42;;;;;;;;;28.00;24.25;;;;;;;;4989348;28;45431;-77
2022/01/28 12:19:14;;;;;;;;;24.00;22.75;;;;;;;;4988004;28;46470;-79
2022/01/28 12:21:40;;;;;;;;;30.25;24.25;;;;;;;;4989125;28;45447;-80
2022/01/28 12:24:20;;;;;;;;;23.50;22.50;;;;;;;;4989943;28;45717;-78
2022/01/28 12:27:00;;;;;;;;;24.50;22.00;;;;;;;;4971455;28;45440;-82
2022/01/28 12:29:29;;;;;;;;;31.75;28.25;;;;;;;;4989518;28;46171;-78
2022/01/28 12:31:58;;;;;;;;;27.50;23.50;;;;;;;;5004160;28;45399;-81
2022/01/28 12:34:23;;;;;;;;;24.50;21.75;;;;;;;;5006803;28;45663;-77
2022/01/28 12:36:49;;;;;;;;;30.50;25.00;;;;;;;;4988653;28;45644;-82
2022/01/28 12:39:31;;;;;;;;;28.00;24.25;;;;;;;;4989756;28;45542;-78
2022/01/28 12:42:04;;;;;;;;;28.75;23.50;;;;;;;;4990107;28;45813;-79
2022/01/28 12:44:31;;;;;;;;;24.50;20.50;;;;;;;;4990339;28;45538;-82
2022/01/28 12:47:01;;;;;;;;;30.25;25.75;;;;;;;;5005279;28;45324;-81
2022/01/28 12:49:31;;;;;;;;;23.75;20.75;;;;;;;;5009612;28;45305;-78
2022/01/28 12:51:58;;;;;;;;;30.00;29.00;;;;;;;;4994529;28;45964;-78
2022/01/28 12:54:31;;;;;;;;;36.00;28.50;;;;;;;;4991507;28;45534;-81
2022/01/28 12:56:56;;;;;;;;;24.25;19.50;;;;;;;;4995373;28;45807;-81
2022/01/28 12:59:21;;;;;;;;;27.33;23.00;;;;;;;;4990012;28;46498;-81
2022/01/28 13:01:53;;;;;;;;;31.33;26.67;;;;;;;;4989764;28;45656;-82
2022/01/28 13:04:21;;;;;;;;;23.00;20.75;;;;;;;;4989823;28;45407;-80
2022/01/28 13:09:13;;;;;;;;;28.67;26.33;;;;;;;;4991555;28;45827;-79
2022/01/28 13:11:47;;;;;;;;;30.50;24.50;;;;;;;;4989224;28;46279;-78
2022/01/28 13:14:14;;;;;;;;;29.00;25.25;;;;;;;;4995414;28;45345;-79
2022/01/28 13:16:40;;;;;;;;;30.50;26.25;;;;;;;;4989067;28;45511;-78
2022/01/28 13:19:06;;;;;;;;;32.75;29.00;;;;;;;;4991829;28;45400;-77
2022/01/28 13:21:32;;;;;;;;;30.00;23.75;;;;;;;;4997390;28;45536;-77
2022/01/28 13:24:09;;;;;;;;;29.00;28.25;;;;;;;;4998345;28;45385;-80
2022/01/28 13:26:35;;;;;;;;;29.50;24.00;;;;;;;;5010405;28;45784;-80
2022/01/28 13:29:09;;;;;;;;;26.50;26.00;;;;;;;;5009161;28;45868;-80
2022/01/28 13:31:34;;;;;;;;;37.25;34.75;;;;;;;;4996024;28;46045;-80
2022/01/28 13:34:01;;;;;;;;;30.50;28.75;;;;;;;;5013603;28;45141;-79
2022/01/28 13:36:41;;;;;;;;;30.00;27.75;;;;;;;;4986107;28;45520;-77
2022/01/28 13:39:17;;;;;;;;;30.75;28.75;;;;;;;;5011141;28;46081;-79
2022/01/28 13:41:42;;;;;;;;;31.25;26.75;;;;;;;;5004838;28;45557;-85
2022/01/28 13:44:21;;;;;;;;;30.67;28.33;;;;;;;;5007485;28;45186;-79
2022/01/28 13:47:00;;;;;;;;;25.25;24.50;;;;;;;;5003068;28;45431;-79
2022/01/28 13:49:33;;;;;;;;;28.50;23.00;;;;;;;;5000002;28;45441;-81
2022/01/28 13:52:09;;;;;;;;;24.25;23.75;;;;;;;;4967631;28;45890;-83
2022/01/28 13:54:34;;;;;;;;;29.75;26.50;;;;;;;;4993914;28;45484;-83
2022/01/28 13:57:00;;;;;;;;;29.00;26.67;;;;;;;;4995856;28;45746;-82
2022/01/28 13:59:29;;;;;;;;;31.50;25.50;;;;;;;;4995703;28;46196;-79
2022/01/28 14:01:58;;;;;;;;;30.75;29.25;;;;;;;;4987200;28;45496;-81
2022/01/28 14:04:27;;;;;;;;;36.75;30.75;;;;;;;;4980916;28;45454;-83
2022/01/28 14:07:09;;;;;;;;;29.75;28.00;;;;;;;;4993461;28;45518;-81
2022/01/28 14:09:54;;;;;;;;;32.75;27.00;;;;;;;;5003509;28;45744;-83
2022/01/28 14:12:34;;;;;;;;;29.75;27.25;;;;;;;;4990784;28;45474;-79
2022/01/28 14:15:10;;;;;;;;;33.75;31.50;;;;;;;;4988882;28;45613;-83
2022/01/28 14:17:35;;;;;;;;;32.50;30.00;;;;;;;;4978249;28;45698;-86
2022/01/28 14:20:01;;;;;;;;;32.25;28.75;;;;;;;;4989138;28;45957;-83
2022/01/28 14:22:26;;;;;;;;;37.50;33.75;;;;;;;;4966921;28;45664;-83
2022/01/28 14:24:52;;;;;;;;;32.67;30.00;;;;;;;;5000340;28;45101;-81
2022/01/28 14:29:54;;;;;;;;;29.25;26.50;;;;;;;;4992813;28;45819;-87
2022/01/28 14:32:21;;;;;;;;;35.25;28.00;;;;;;;;4966395;28;46256;-82
2022/01/28 14:34:48;;;;;;;;;37.25;34.00;;;;;;;;4970731;28;46130;-82
2022/01/28 14:37:13;;;;;;;;;30.75;29.75;;;;;;;;4985781;28;45479;-81
2022/01/28 14:39:40;;;;;;;;;28.50;26.50;;;;;;;;4958541;28;47984;-79
2022/01/28 14:42:06;;;;;;;;;32.00;28.25;;;;;;;;4959263;28;45728;-80
2022/01/28 14:44:32;;;;;;;;;29.00;27.00;;;;;;;;4958902;28;45677;-79
2022/01/28 14:46:58;;;;;;;;;28.00;25.25;;;;;;;;4961995;28;46026;-80
2022/01/28 14:49:23;;;;;;;;;30.25;27.25;;;;;;;;4977444;28;46300;-79
2022/01/28 14:51:55;;;;;;;;;30.75;26.25;;;;;;;;4972360;28;45105;-83
2022/01/28 14:54:26;;;;;;;;;34.50;28.50;;;;;;;;4973611;28;45267;-83
2022/01/28 14:57:03;;;;;;;;;26.00;23.25;;;;;;;;4982061;28;45710;-82
2022/01/28 14:59:28;;;;;;;;;29.00;24.75;;;;;;;;4982200;28;45791;-81
2022/01/28 15:01:54;;;;;;;;;24.00;23.25;;;;;;;;4968521;28;45592;-79
2022/01/28 15:04:19;;;;;;;;;33.25;31.75;;;;;;;;4974782;28;45488;-84
2022/01/28 15:06:46;;;;;;;;;23.75;22.00;;;;;;;;4982406;28;45239;-85
2022/01/28 15:09:12;;;;;;;;;22.25;21.00;;;;;;;;4983393;28;45782;-85
2022/01/28 15:11:49;;;;;;;;;30.25;26.50;;;;;;;;4978548;28;45721;-80
2022/01/28 15:14:22;;;;;;;;;29.75;27.00;;;;;;;;4982694;28;45490;-80
2022/01/28 15:16:47;;;;;;;;;31.75;29.00;;;;;;;;4982168;28;45465;-80
2022/01/28 15:19:13;;;;;;;;;29.00;27.50;;;;;;;;4983416;28;45132;-82
2022/01/28 15:21:38;;;;;;;;;31.33;28.00;;;;;;;;4978673;28;45325;-86
2022/01/28 15:24:04;;;;;;;;;23.25;21.25;;;;;;;;4981739;28;45462;-82
2022/01/28 15:26:30;;;;;;;;;31.25;28.75;;;;;;;;4982492;28;45878;-82
2022/01/28 15:29:02;;;;;;;;;31.00;26.50;;;;;;;;4977510;28;46037;-81
2022/01/28 15:37:06;;;;;;;;;36.00;32.50;;;;;;;;4994952;28;45548;-87
2022/01/28 15:39:35;;;;;;;;;32.75;28.25;;;;;;;;4981716;28;47438;-82
2022/01/28 15:42:04;;;;;;;;;27.50;25.25;;;;;;;;4988680;28;45598;-83
2022/01/28 15:44:29;;;;;;;;;29.00;26.75;;;;;;;;4993188;28;46288;-81
2022/01/28 15:46:55;;;;;;;;;30.00;28.00;;;;;;;;4956468;28;46244;-80
2022/01/28 15:49:20;;;;;;;;;39.33;33.67;;;;;;;;4959369;28;47265;-80
2022/01/28 15:51:45;;;;;;;;;33.67;30.33;;;;;;;;4976752;28;45590;-82
2022/01/28 15:54:12;;;;;;;;;33.67;28.67;;;;;;;;4982928;28;45663;-81
2022/01/28 15:56:37;;;;;;;;;35.25;33.50;;;;;;;;4980134;28;45501;-82
2022/01/28 15:59:02;;;;;;;;;30.00;29.00;;;;;;;;4986870;28;47213;-81